sensor_id;sensor_type;location;lat;lon;timestamp;pressure;altitude;pressure_sealevel;temperature;humidity
53932;BME280;39844;52.496;13.482;2023-01-01T00:01:29;100857.09;;;15.33;61.42
53932;BME280;39844;52.496;13.482;2023-01-01T00:03:56;100865.13;;;15.28;61.82
53932;BME280;39844;52.496;13.482;2023-01-01T00:06:22;100872.19;;;15.28;61.48
53932;BME280;39844;52.496;13.482;2023-01-01T00:08:47;100866.94;;;15.26;61.57
53932;BME280;39844;52.496;13.482;2023-01-01T00:11:13;100877.44;;;15.29;61.20
53932;BME280;39844;52.496;13.482;2023-01-01T00:13:40;100883.63;;;15.30;61.15
53932;BME280;39844;52.496;13.482;2023-01-01T00:16:10;100880.25;;;15.22;61.42
53932;BME280;39844;52.496;13.482;2023-01-01T00:18:37;100880.25;;;15.22;61.29
53932;BME280;39844;52.496;13.482;2023-01-01T00:21:04;100882.84;;;15.25;60.46
53932;BME280;39844;52.496;13.482;2023-01-01T00:23:30;100875.84;;;15.22;60.62
53932;BME280;39844;52.496;13.482;2023-01-01T00:25:56;100889.94;;;15.21;60.99
53932;BME280;39844;52.496;13.482;2023-01-01T00:28:21;100883.72;;;15.24;60.67
53932;BME280;39844;52.496;13.482;2023-01-01T00:30:46;100894.19;;;15.30;60.00
53932;BME280;39844;52.496;13.482;2023-01-01T00:33:12;100895.03;;;15.32;59.55
53932;BME280;39844;52.496;13.482;2023-01-01T00:35:37;100895.06;;;15.30;59.18
53932;BME280;39844;52.496;13.482;2023-01-01T00:38:02;100901.34;;;15.25;59.62
53932;BME280;39844;52.496;13.482;2023-01-01T00:40:28;100901.34;;;15.25;59.29
53932;BME280;39844;52.496;13.482;2023-01-01T00:42:53;100895.25;;;15.21;59.80
53932;BME280;39844;52.496;13.482;2023-01-01T00:45:18;100902.25;;;15.24;59.02
53932;BME280;39844;52.496;13.482;2023-01-01T00:47:44;100903.16;;;15.21;59.14
53932;BME280;39844;52.496;13.482;2023-01-01T00:50:09;100894.34;;;15.20;59.16
53932;BME280;39844;52.496;13.482;2023-01-01T00:52:34;100900.44;;;15.26;58.86
53932;BME280;39844;52.496;13.482;2023-01-01T00:54:59;100902.13;;;15.28;58.17
53932;BME280;39844;52.496;13.482;2023-01-01T00:57:25;100892.44;;;15.29;58.41
53932;BME280;39844;52.496;13.482;2023-01-01T00:59:50;100906.59;;;15.28;58.02
53932;BME280;39844;52.496;13.482;2023-01-01T01:02:15;100895.19;;;15.24;58.04
53932;BME280;39844;52.496;13.482;2023-01-01T01:04:41;100902.22;;;15.25;57.76
53932;BME280;39844;52.496;13.482;2023-01-01T01:07:06;100901.41;;;15.22;58.01
53932;BME280;39844;52.496;13.482;2023-01-01T01:09:31;100908.50;;;15.19;57.47
53932;BME280;39844;52.496;13.482;2023-01-01T01:11:56;100910.19;;;15.24;57.69
53932;BME280;39844;52.496;13.482;2023-01-01T01:14:22;100920.69;;;15.27;57.58
53932;BME280;39844;52.496;13.482;2023-01-01T01:16:47;100922.38;;;15.31;56.71
53932;BME280;39844;52.496;13.482;2023-01-01T01:19:12;100925.09;;;15.26;56.98
53932;BME280;39844;52.496;13.482;2023-01-01T01:21:38;100912.72;;;15.28;57.06
53932;BME280;39844;52.496;13.482;2023-01-01T01:24:03;100911.78;;;15.31;56.42
53932;BME280;39844;52.496;13.482;2023-01-01T01:26:31;100915.34;;;15.30;56.44
53932;BME280;39844;52.496;13.482;2023-01-01T01:28:56;100912.66;;;15.31;56.22
53932;BME280;39844;52.496;13.482;2023-01-01T01:31:24;100910.06;;;15.28;56.16
53932;BME280;39844;52.496;13.482;2023-01-01T01:33:50;100918.94;;;15.26;56.52
53932;BME280;39844;52.496;13.482;2023-01-01T01:36:17;100932.22;;;15.24;56.29
53932;BME280;39844;52.496;13.482;2023-01-01T01:38:42;100916.38;;;15.23;56.46
53932;BME280;39844;52.496;13.482;2023-01-01T01:41:08;100922.50;;;15.25;56.11
53932;BME280;39844;52.496;13.482;2023-01-01T01:46:05;100917.16;;;15.28;55.77
53932;BME280;39844;52.496;13.482;2023-01-01T01:48:50;100923.28;;;15.28;55.52
53932;BME280;39844;52.496;13.482;2023-01-01T01:51:23;100926.81;;;15.30;55.66
53932;BME280;39844;52.496;13.482;2023-01-01T01:53:55;100924.19;;;15.29;55.15
53932;BME280;39844;52.496;13.482;2023-01-01T01:56:36;100933.88;;;15.28;55.48
53932;BME280;39844;52.496;13.482;2023-01-01T01:59:05;100922.50;;;15.25;55.18
53932;BME280;39844;52.496;13.482;2023-01-01T02:01:30;100910.13;;;15.27;55.35
53932;BME280;39844;52.496;13.482;2023-01-01T02:04:00;100918.88;;;15.29;55.00
53932;BME280;39844;52.496;13.482;2023-01-01T02:06:26;100918.88;;;15.30;54.95
53932;BME280;39844;52.496;13.482;2023-01-01T02:08:54;100930.34;;;15.29;54.78
53932;BME280;39844;52.496;13.482;2023-01-01T02:11:21;100911.00;;;15.27;55.10
53932;BME280;39844;52.496;13.482;2023-01-01T02:13:46;100933.09;;;15.25;55.07
53932;BME280;39844;52.496;13.482;2023-01-01T02:16:26;100929.47;;;15.29;54.93
53932;BME280;39844;52.496;13.482;2023-01-01T02:27:30;100930.34;;;15.29;54.71
53932;BME280;39844;52.496;13.482;2023-01-01T02:30:01;100918.00;;;15.30;54.29
53932;BME280;39844;52.496;13.482;2023-01-01T02:32:34;100923.19;;;15.34;54.20
53932;BME280;39844;52.496;13.482;2023-01-01T02:35:05;100925.00;;;15.32;54.04
53932;BME280;39844;52.496;13.482;2023-01-01T02:37:32;100917.06;;;15.31;54.31
53932;BME280;39844;52.496;13.482;2023-01-01T02:39:58;100926.88;;;15.27;54.14
53932;BME280;39844;52.496;13.482;2023-01-01T02:42:26;100927.75;;;15.28;54.34
53932;BME280;39844;52.496;13.482;2023-01-01T02:44:54;100919.81;;;15.26;54.47
53932;BME280;39844;52.496;13.482;2023-01-01T02:47:22;100920.91;;;15.17;54.66
53932;BME280;39844;52.496;13.482;2023-01-01T02:50:07;100912.13;;;15.14;54.72
53932;BME280;39844;52.496;13.482;2023-01-01T02:55:35;100910.44;;;15.11;54.53
53932;BME280;39844;52.496;13.482;2023-01-01T02:58:12;100912.22;;;15.09;54.84
53932;BME280;39844;52.496;13.482;2023-01-01T03:00:41;100914.06;;;15.06;55.05
53932;BME280;39844;52.496;13.482;2023-01-01T03:03:26;100915.81;;;15.05;54.72
53932;BME280;39844;52.496;13.482;2023-01-01T03:06:06;100901.81;;;15.00;55.01
53932;BME280;39844;52.496;13.482;2023-01-01T03:08:42;100922.06;;;15.01;55.07
53932;BME280;39844;52.496;13.482;2023-01-01T03:11:13;100915.03;;;15.02;54.75
53932;BME280;39844;52.496;13.482;2023-01-01T03:19:05;100927.38;;;15.01;54.64
53932;BME280;39844;52.496;13.482;2023-01-01T03:21:32;100925.59;;;15.00;54.78
53932;BME280;39844;52.496;13.482;2023-01-01T03:23:58;100927.31;;;15.03;54.59
53932;BME280;39844;52.496;13.482;2023-01-01T03:26:24;100924.78;;;14.98;54.80
53932;BME280;39844;52.496;13.482;2023-01-01T03:28:55;100927.47;;;14.97;54.89
53932;BME280;39844;52.496;13.482;2023-01-01T03:31:24;100921.28;;;14.96;54.85
53932;BME280;39844;52.496;13.482;2023-01-01T03:34:01;100923.09;;;14.94;54.81
53932;BME280;39844;52.496;13.482;2023-01-01T03:36:34;100928.38;;;14.94;55.20
53932;BME280;39844;52.496;13.482;2023-01-01T03:39:04;100926.63;;;14.93;55.09
53932;BME280;39844;52.496;13.482;2023-01-01T03:42:03;100923.94;;;14.96;55.01
53932;BME280;39844;52.496;13.482;2023-01-01T03:44:37;100924.97;;;14.89;55.17
53932;BME280;39844;52.496;13.482;2023-01-01T03:47:06;100923.19;;;14.88;55.23
53932;BME280;39844;52.496;13.482;2023-01-01T03:49:32;100924.97;;;14.88;55.39
53932;BME280;39844;52.496;13.482;2023-01-01T03:52:14;100928.63;;;14.81;55.39
53932;BME280;39844;52.496;13.482;2023-01-01T03:54:51;100925.06;;;14.83;55.52
53932;BME280;39844;52.496;13.482;2023-01-01T03:57:41;100930.34;;;14.83;55.52
53932;BME280;39844;52.496;13.482;2023-01-01T04:00:13;100940.94;;;14.82;55.22
53932;BME280;39844;52.496;13.482;2023-01-01T04:03:00;100950.72;;;14.77;55.63
53932;BME280;39844;52.496;13.482;2023-01-01T04:05:29;100950.72;;;14.77;55.70
53932;BME280;39844;52.496;13.482;2023-01-01T04:07:55;100948.94;;;14.77;55.48
53932;BME280;39844;52.496;13.482;2023-01-01T04:10:22;100956.03;;;14.77;55.60
53932;BME280;39844;52.496;13.482;2023-01-01T04:12:50;100962.19;;;14.76;55.40
53932;BME280;39844;52.496;13.482;2023-01-01T04:15:19;100958.66;;;14.75;55.52
53932;BME280;39844;52.496;13.482;2023-01-01T04:17:45;100961.41;;;14.71;55.36
53932;BME280;39844;52.496;13.482;2023-01-01T04:20:10;100971.09;;;14.70;55.40
53932;BME280;39844;52.496;13.482;2023-01-01T04:22:36;100972.00;;;14.68;55.68
53932;BME280;39844;52.496;13.482;2023-01-01T04:25:02;100972.88;;;14.68;55.62
53932;BME280;39844;52.496;13.482;2023-01-01T04:27:28;100968.53;;;14.66;55.88
53932;BME280;39844;52.496;13.482;2023-01-01T04:29:53;100967.56;;;14.70;55.47
53932;BME280;39844;52.496;13.482;2023-01-01T04:32:18;100971.03;;;14.73;55.49
53932;BME280;39844;52.496;13.482;2023-01-01T04:34:44;100979.94;;;14.69;55.76
53932;BME280;39844;52.496;13.482;2023-01-01T04:37:09;100975.59;;;14.65;55.87
53932;BME280;39844;52.496;13.482;2023-01-01T04:39:34;100979.19;;;14.60;55.64
53932;BME280;39844;52.496;13.482;2023-01-01T04:42:00;100981.88;;;14.58;55.86
53932;BME280;39844;52.496;13.482;2023-01-01T04:44:25;100980.94;;;14.61;55.47
53932;BME280;39844;52.496;13.482;2023-01-01T04:46:50;100974.78;;;14.60;55.88
53932;BME280;39844;52.496;13.482;2023-01-01T04:49:16;100991.56;;;14.59;55.99
53932;BME280;39844;52.496;13.482;2023-01-01T04:51:41;100984.50;;;14.58;55.64
53932;BME280;39844;52.496;13.482;2023-01-01T04:54:06;100997.75;;;14.55;56.11
53932;BME280;39844;52.496;13.482;2023-01-01T04:56:31;100987.19;;;14.55;55.86
53932;BME280;39844;52.496;13.482;2023-01-01T04:58:57;100988.91;;;14.59;55.77
53932;BME280;39844;52.496;13.482;2023-01-01T05:01:26;100987.09;;;14.61;55.74
53932;BME280;39844;52.496;13.482;2023-01-01T05:03:54;100990.63;;;14.60;56.12
53932;BME280;39844;52.496;13.482;2023-01-01T05:06:20;100996.88;;;14.56;55.89
53932;BME280;39844;52.496;13.482;2023-01-01T05:08:48;100988.06;;;14.55;56.06
53932;BME280;39844;52.496;13.482;2023-01-01T05:13:42;100991.47;;;14.62;55.77
53932;BME280;39844;52.496;13.482;2023-01-01T05:16:10;100995.88;;;14.63;55.50
53932;BME280;39844;52.496;13.482;2023-01-01T05:18:36;100989.75;;;14.61;55.71
53932;BME280;39844;52.496;13.482;2023-01-01T05:21:04;100994.06;;;14.65;55.82
53932;BME280;39844;52.496;13.482;2023-01-01T05:23:31;100992.31;;;14.66;55.55
53932;BME280;39844;52.496;13.482;2023-01-01T05:25:57;100989.72;;;14.63;55.76
53932;BME280;39844;52.496;13.482;2023-01-01T05:28:23;101002.09;;;14.61;55.85
53932;BME280;39844;52.496;13.482;2023-01-01T05:30:51;101003.00;;;14.58;56.08
53932;BME280;39844;52.496;13.482;2023-01-01T05:33:17;101004.75;;;14.59;55.76
53932;BME280;39844;52.496;13.482;2023-01-01T05:35:43;101006.47;;;14.60;56.23
53932;BME280;39844;52.496;13.482;2023-01-01T05:38:09;100996.78;;;14.61;55.50
53932;BME280;39844;52.496;13.482;2023-01-01T05:40:37;101010.09;;;14.54;55.70
53932;BME280;39844;52.496;13.482;2023-01-01T05:43:03;101005.81;;;14.49;56.53
53932;BME280;39844;52.496;13.482;2023-01-01T05:45:28;101003.19;;;14.46;56.23
53932;BME280;39844;52.496;13.482;2023-01-01T05:47:53;101003.28;;;14.40;56.54
53932;BME280;39844;52.496;13.482;2023-01-01T05:50:19;100999.88;;;14.33;56.85
53932;BME280;39844;52.496;13.482;2023-01-01T05:52:44;101009.59;;;14.28;57.22
53932;BME280;39844;52.496;13.482;2023-01-01T05:55:09;101012.28;;;14.25;57.27
53932;BME280;39844;52.496;13.482;2023-01-01T05:57:34;101009.75;;;14.18;57.80
53932;BME280;39844;52.496;13.482;2023-01-01T06:00:00;101008.09;;;14.11;58.04
53932;BME280;39844;52.496;13.482;2023-01-01T06:02:25;101011.69;;;14.04;58.64
53932;BME280;39844;52.496;13.482;2023-01-01T06:04:50;101013.47;;;14.02;58.52
53932;BME280;39844;52.496;13.482;2023-01-01T06:07:16;101009.13;;;14.01;58.65
53932;BME280;39844;52.496;13.482;2023-01-01T06:09:41;101019.69;;;13.98;58.87
53932;BME280;39844;52.496;13.482;2023-01-01T06:12:07;101012.66;;;13.98;58.96
53932;BME280;39844;52.496;13.482;2023-01-01T06:14:32;101016.22;;;13.94;58.99
53932;BME280;39844;52.496;13.482;2023-01-01T06:16:57;101018.81;;;13.97;59.07
53932;BME280;39844;52.496;13.482;2023-01-01T06:19:23;101003.88;;;13.98;59.11
53932;BME280;39844;52.496;13.482;2023-01-01T06:21:48;101019.66;;;13.99;58.89
53932;BME280;39844;52.496;13.482;2023-01-01T06:24:14;101021.44;;;13.99;58.75
53932;BME280;39844;52.496;13.482;2023-01-01T06:26:39;101033.72;;;14.01;58.68
53932;BME280;39844;52.496;13.482;2023-01-01T06:29:04;101035.50;;;14.01;58.83
53932;BME280;39844;52.496;13.482;2023-01-01T06:31:30;101039.03;;;14.00;58.98
53932;BME280;39844;52.496;13.482;2023-01-01T06:33:56;101049.59;;;14.00;58.92
53932;BME280;39844;52.496;13.482;2023-01-01T06:36:23;101052.25;;;13.98;58.92
53932;BME280;39844;52.496;13.482;2023-01-01T06:38:51;101046.97;;;13.97;59.06
53932;BME280;39844;52.496;13.482;2023-01-01T06:41:20;101049.56;;;14.03;58.97
53932;BME280;39844;52.496;13.482;2023-01-01T06:43:46;101040.69;;;14.07;58.65
53932;BME280;39844;52.496;13.482;2023-01-01T06:46:15;101053.91;;;14.04;58.96
53932;BME280;39844;52.496;13.482;2023-01-01T06:48:41;101044.28;;;14.01;58.89
53932;BME280;39844;52.496;13.482;2023-01-01T06:51:12;101054.84;;;14.03;59.04
53932;BME280;39844;52.496;13.482;2023-01-01T06:53:37;101065.44;;;14.00;59.01
53932;BME280;39844;52.496;13.482;2023-01-01T06:56:03;101057.47;;;14.03;58.76
53932;BME280;39844;52.496;13.482;2023-01-01T06:58:29;101050.38;;;14.06;58.86
53932;BME280;39844;52.496;13.482;2023-01-01T07:01:03;101054.69;;;14.12;58.44
53932;BME280;39844;52.496;13.482;2023-01-01T07:03:28;101059.97;;;14.12;58.68
53932;BME280;39844;52.496;13.482;2023-01-01T07:05:54;101061.75;;;14.13;58.31
53932;BME280;39844;52.496;13.482;2023-01-01T07:08:19;101060.84;;;14.12;58.40
53932;BME280;39844;52.496;13.482;2023-01-01T07:10:44;101064.38;;;14.11;58.51
53932;BME280;39844;52.496;13.482;2023-01-01T07:13:09;101064.38;;;14.13;58.49
53932;BME280;39844;52.496;13.482;2023-01-01T07:15:35;101066.06;;;14.17;58.35
53932;BME280;39844;52.496;13.482;2023-01-01T07:18:00;101074.84;;;14.19;58.32
53932;BME280;39844;52.496;13.482;2023-01-01T07:20:25;101085.34;;;14.25;58.02
53932;BME280;39844;52.496;13.482;2023-01-01T07:22:50;101079.09;;;14.29;57.79
53932;BME280;39844;52.496;13.482;2023-01-01T07:25:16;101100.22;;;14.30;57.73
53932;BME280;39844;52.496;13.482;2023-01-01T07:27:41;101085.31;;;14.31;57.69
53932;BME280;39844;52.496;13.482;2023-01-01T07:30:08;101097.59;;;14.30;57.53
53932;BME280;39844;52.496;13.482;2023-01-01T07:32:33;101102.00;;;14.31;57.46
53932;BME280;39844;52.496;13.482;2023-01-01T07:34:59;101103.69;;;14.37;57.36
53932;BME280;39844;52.496;13.482;2023-01-01T07:37:24;101118.66;;;14.38;57.14
53932;BME280;39844;52.496;13.482;2023-01-01T07:39:49;101116.00;;;14.38;57.47
53932;BME280;39844;52.496;13.482;2023-01-01T07:42:14;101112.50;;;14.39;57.30
53932;BME280;39844;52.496;13.482;2023-01-01T07:44:40;101112.50;;;14.39;57.50
53932;BME280;39844;52.496;13.482;2023-01-01T07:47:17;101108.00;;;14.42;57.48
53932;BME280;39844;52.496;13.482;2023-01-01T07:49:44;101112.31;;;14.51;56.56
53932;BME280;39844;52.496;13.482;2023-01-01T07:52:09;101116.69;;;14.53;56.96
53932;BME280;39844;52.496;13.482;2023-01-01T07:54:35;101128.97;;;14.54;57.14
53932;BME280;39844;52.496;13.482;2023-01-01T07:57:00;101135.13;;;14.55;56.80
53932;BME280;39844;52.496;13.482;2023-01-01T07:59:25;101153.63;;;14.55;57.04
53932;BME280;39844;52.496;13.482;2023-01-01T08:01:50;101142.19;;;14.54;57.02
53932;BME280;39844;52.496;13.482;2023-01-01T08:04:16;101137.78;;;14.55;56.94
53932;BME280;39844;52.496;13.482;2023-01-01T08:06:41;101146.63;;;14.54;57.19
53932;BME280;39844;52.496;13.482;2023-01-01T08:09:06;101141.31;;;14.55;57.17
53932;BME280;39844;52.496;13.482;2023-01-01T08:11:32;101151.88;;;14.55;57.24
53932;BME280;39844;52.496;13.482;2023-01-01T08:13:57;101143.06;;;14.57;56.99
53932;BME280;39844;52.496;13.482;2023-01-01T08:16:22;101150.09;;;14.56;57.03
53932;BME280;39844;52.496;13.482;2023-01-01T08:18:48;101145.66;;;14.58;56.85
53932;BME280;39844;52.496;13.482;2023-01-01T08:21:13;101149.16;;;14.60;57.01
53932;BME280;39844;52.496;13.482;2023-01-01T08:23:38;101150.91;;;14.61;57.09
53932;BME280;39844;52.496;13.482;2023-01-01T08:26:04;101142.06;;;14.62;56.88
53932;BME280;39844;52.496;13.482;2023-01-01T08:28:30;101150.91;;;14.61;57.34
53932;BME280;39844;52.496;13.482;2023-01-01T08:30:55;101152.66;;;14.62;57.27
53932;BME280;39844;52.496;13.482;2023-01-01T08:33:21;101142.03;;;14.65;57.23
53932;BME280;39844;52.496;13.482;2023-01-01T08:35:46;101150.00;;;14.64;57.31
53932;BME280;39844;52.496;13.482;2023-01-01T08:38:11;101159.69;;;14.63;57.57
53932;BME280;39844;52.496;13.482;2023-01-01T08:40:37;101163.16;;;14.68;57.19
53932;BME280;39844;52.496;13.482;2023-01-01T08:43:03;101170.19;;;14.69;57.10
53932;BME280;39844;52.496;13.482;2023-01-01T08:45:28;101172.81;;;14.71;57.38
53932;BME280;39844;52.496;13.482;2023-01-01T08:47:53;101162.22;;;14.71;57.08
53932;BME280;39844;52.496;13.482;2023-01-01T08:50:18;101178.94;;;14.74;56.72
53932;BME280;39844;52.496;13.482;2023-01-01T08:52:44;101182.38;;;14.79;56.52
53932;BME280;39844;52.496;13.482;2023-01-01T08:55:09;101186.72;;;14.83;56.57
53932;BME280;39844;52.496;13.482;2023-01-01T08:57:34;101178.78;;;14.83;56.83
53932;BME280;39844;52.496;13.482;2023-01-01T09:00:00;101186.69;;;14.85;57.00
53932;BME280;39844;52.496;13.482;2023-01-01T09:02:25;101188.41;;;14.87;56.48
53932;BME280;39844;52.496;13.482;2023-01-01T09:04:50;101192.81;;;14.88;56.67
53932;BME280;39844;52.496;13.482;2023-01-01T09:07:15;101197.22;;;14.88;56.60
53932;BME280;39844;52.496;13.482;2023-01-01T09:09:41;101192.81;;;14.88;56.37
53932;BME280;39844;52.496;13.482;2023-01-01T09:12:06;101193.66;;;14.90;56.35
53932;BME280;39844;52.496;13.482;2023-01-01T09:14:34;101207.75;;;14.91;56.36
53932;BME280;39844;52.496;13.482;2023-01-01T09:17:00;101215.72;;;14.89;56.45
53932;BME280;39844;52.496;13.482;2023-01-01T09:19:25;101206.91;;;14.87;56.67
53932;BME280;39844;52.496;13.482;2023-01-01T09:21:51;101222.75;;;14.90;56.56
53932;BME280;39844;52.496;13.482;2023-01-01T09:24:16;101222.69;;;14.93;56.36
53932;BME280;39844;52.496;13.482;2023-01-01T09:26:42;101233.25;;;14.96;56.16
53932;BME280;39844;52.496;13.482;2023-01-01T09:29:07;101243.81;;;14.96;56.29
53932;BME280;39844;52.496;13.482;2023-01-01T09:31:32;101245.59;;;14.97;56.28
53932;BME280;39844;52.496;13.482;2023-01-01T09:33:57;101245.50;;;15.00;56.32
53932;BME280;39844;52.496;13.482;2023-01-01T09:38:52;101238.47;;;15.02;56.70
53932;BME280;39844;52.496;13.482;2023-01-01T09:44:04;101244.53;;;15.09;56.33
53932;BME280;39844;52.496;13.482;2023-01-01T09:46:34;101246.28;;;15.10;56.45
53932;BME280;39844;52.496;13.482;2023-01-01T09:49:08;101240.91;;;15.14;56.47
53932;BME280;39844;52.496;13.482;2023-01-01T09:51:38;101227.66;;;15.17;56.50
53932;BME280;39844;52.496;13.482;2023-01-01T09:56:54;101238.13;;;15.24;56.14
53932;BME280;39844;52.496;13.482;2023-01-01T09:59:20;101244.28;;;15.24;56.39
53932;BME280;39844;52.496;13.482;2023-01-01T10:05:01;101231.03;;;15.26;56.27
53932;BME280;39844;52.496;13.482;2023-01-01T10:07:40;101242.50;;;15.26;56.15
53932;BME280;39844;52.496;13.482;2023-01-01T10:12:44;101243.31;;;15.33;56.28
53932;BME280;39844;52.496;13.482;2023-01-01T10:15:20;101248.50;;;15.37;55.96
53932;BME280;39844;52.496;13.482;2023-01-01T10:17:54;101242.31;;;15.40;55.79
53932;BME280;39844;52.496;13.482;2023-01-01T10:20:44;101247.50;;;15.44;55.91
53932;BME280;39844;52.496;13.482;2023-01-01T10:23:24;101245.75;;;15.48;55.75
53932;BME280;39844;52.496;13.482;2023-01-01T10:25:51;101254.47;;;15.51;55.23
53932;BME280;39844;52.496;13.482;2023-01-01T10:28:38;101247.44;;;15.52;55.21
53932;BME280;39844;52.496;13.482;2023-01-01T10:31:34;101260.66;;;15.52;55.11
53932;BME280;39844;52.496;13.482;2023-01-01T10:34:16;101271.25;;;15.52;55.41
53932;BME280;39844;52.496;13.482;2023-01-01T10:36:43;101276.53;;;15.52;55.43
53932;BME280;39844;52.496;13.482;2023-01-01T10:39:17;101277.47;;;15.51;55.41
53932;BME280;39844;52.496;13.482;2023-01-01T10:41:44;101279.19;;;15.53;55.42
53932;BME280;39844;52.496;13.482;2023-01-01T10:44:10;101287.97;;;15.55;55.33
53932;BME280;39844;52.496;13.482;2023-01-01T10:46:40;101284.47;;;15.53;55.35
53932;BME280;39844;52.496;13.482;2023-01-01T10:49:10;101286.25;;;15.51;55.73
53932;BME280;39844;52.496;13.482;2023-01-01T10:51:38;101280.09;;;15.51;55.59
53932;BME280;39844;52.496;13.482;2023-01-01T10:56:55;101281.84;;;15.52;55.43
53932;BME280;39844;52.496;13.482;2023-01-01T10:59:34;101280.94;;;15.53;55.60
53932;BME280;39844;52.496;13.482;2023-01-01T11:04:43;101274.69;;;15.57;55.62
53932;BME280;39844;52.496;13.482;2023-01-01T11:07:16;101282.63;;;15.57;55.70
53932;BME280;39844;52.496;13.482;2023-01-01T11:09:47;101282.63;;;15.58;55.22
53932;BME280;39844;52.496;13.482;2023-01-01T11:12:18;101302.88;;;15.61;55.65
53932;BME280;39844;52.496;13.482;2023-01-01T11:14:53;101302.00;;;15.60;55.40
53932;BME280;39844;52.496;13.482;2023-01-01T11:17:22;101308.16;;;15.61;55.65
53932;BME280;39844;52.496;13.482;2023-01-01T11:19:49;101309.03;;;15.63;55.24
53932;BME280;39844;52.496;13.482;2023-01-01T11:25:03;101319.56;;;15.64;55.21
53932;BME280;39844;52.496;13.482;2023-01-01T11:27:29;101322.25;;;15.63;55.07
53932;BME280;39844;52.496;13.482;2023-01-01T11:30:22;101332.84;;;15.63;55.05
53932;BME280;39844;52.496;13.482;2023-01-01T11:32:49;101324.88;;;15.64;54.80
53932;BME280;39844;52.496;13.482;2023-01-01T11:35:23;101326.63;;;15.64;54.71
53932;BME280;39844;52.496;13.482;2023-01-01T11:37:51;101309.03;;;15.63;54.80
53932;BME280;39844;52.496;13.482;2023-01-01T11:40:20;101315.13;;;15.68;54.39
53932;BME280;39844;52.496;13.482;2023-01-01T11:42:53;101334.56;;;15.64;54.68
53932;BME280;39844;52.496;13.482;2023-01-01T11:45:43;101316.00;;;15.68;54.50
53932;BME280;39844;52.496;13.482;2023-01-01T11:48:13;101303.56;;;15.72;54.44
53932;BME280;39844;52.496;13.482;2023-01-01T11:50:49;101303.53;;;15.75;54.68
53932;BME280;39844;52.496;13.482;2023-01-01T11:53:26;101299.13;;;15.74;54.99
53932;BME280;39844;52.496;13.482;2023-01-01T12:01:05;101326.44;;;15.77;54.64
53932;BME280;39844;52.496;13.482;2023-01-01T12:03:42;101314.03;;;15.81;54.38
53932;BME280;39844;52.496;13.482;2023-01-01T12:06:27;101333.41;;;15.81;54.67
53932;BME280;39844;52.496;13.482;2023-01-01T12:09:10;101317.56;;;15.80;54.90
53932;BME280;39844;52.496;13.482;2023-01-01T12:11:47;101316.69;;;15.81;54.97
53932;BME280;39844;52.496;13.482;2023-01-01T12:17:17;101330.81;;;15.80;54.83
53932;BME280;39844;52.496;13.482;2023-01-01T12:20:10;101336.09;;;15.80;55.00
53932;BME280;39844;52.496;13.482;2023-01-01T12:22:39;101340.50;;;15.79;54.82
53932;BME280;39844;52.496;13.482;2023-01-01T12:25:05;101343.16;;;15.81;54.79
53932;BME280;39844;52.496;13.482;2023-01-01T12:30:04;101342.22;;;15.84;54.91
53932;BME280;39844;52.496;13.482;2023-01-01T12:32:58;101334.28;;;15.82;54.80
53932;BME280;39844;52.496;13.482;2023-01-01T12:38:33;101320.25;;;15.77;55.15
53932;BME280;39844;52.496;13.482;2023-01-01T12:43:38;101320.38;;;15.71;55.15
53932;BME280;39844;52.496;13.482;2023-01-01T12:48:50;101316.91;;;15.64;55.55
53932;BME280;39844;52.496;13.482;2023-01-01T13:00:12;101315.31;;;15.56;56.55
53932;BME280;39844;52.496;13.482;2023-01-01T13:02:45;101325.06;;;15.52;56.78
53932;BME280;39844;52.496;13.482;2023-01-01T13:05:21;101325.97;;;15.50;57.20
53932;BME280;39844;52.496;13.482;2023-01-01T13:07:51;101326.03;;;15.45;57.44
53932;BME280;39844;52.496;13.482;2023-01-01T13:10:31;101319.88;;;15.42;57.58
53932;BME280;39844;52.496;13.482;2023-01-01T13:12:57;101321.66;;;15.38;57.21
53932;BME280;39844;52.496;13.482;2023-01-01T13:20:39;101344.75;;;15.30;58.14
53932;BME280;39844;52.496;13.482;2023-01-01T13:23:05;101339.41;;;15.32;57.93
53932;BME280;39844;52.496;13.482;2023-01-01T13:25:30;101352.69;;;15.29;58.46
53932;BME280;39844;52.496;13.482;2023-01-01T13:43:51;101382.84;;;15.14;59.04
53932;BME280;39844;52.496;13.482;2023-01-01T13:46:23;101389.91;;;15.13;59.17
53932;BME280;39844;52.496;13.482;2023-01-01T13:52:19;101398.81;;;15.06;59.29
53932;BME280;39844;52.496;13.482;2023-01-01T13:55:15;101411.16;;;15.06;59.47
53932;BME280;39844;52.496;13.482;2023-01-01T14:03:40;101416.53;;;14.95;60.12
53932;BME280;39844;52.496;13.482;2023-01-01T14:06:11;101423.63;;;14.93;60.01
53932;BME280;39844;52.496;13.482;2023-01-01T14:08:39;101431.59;;;14.89;60.06
53932;BME280;39844;52.496;13.482;2023-01-01T14:11:19;101433.41;;;14.87;60.45
53932;BME280;39844;52.496;13.482;2023-01-01T14:13:45;101440.44;;;14.85;60.50
53932;BME280;39844;52.496;13.482;2023-01-01T14:16:11;101444.88;;;14.84;60.37
53932;BME280;39844;52.496;13.482;2023-01-01T14:21:11;101438.75;;;14.78;60.89
53932;BME280;39844;52.496;13.482;2023-01-01T14:23:42;101437.03;;;14.75;60.86
53932;BME280;39844;52.496;13.482;2023-01-01T14:26:11;101434.47;;;14.69;61.36
53932;BME280;39844;52.496;13.482;2023-01-01T14:28:37;101430.09;;;14.64;61.89
53932;BME280;39844;52.496;13.482;2023-01-01T14:31:09;101438.03;;;14.62;61.90
53932;BME280;39844;52.496;13.482;2023-01-01T14:33:35;101437.19;;;14.59;61.81